Time;durP1;ratioP1;P1;durP2;ratioP2;P2;SDS_P1;SDS_P2;PMS_P1;PMS_P2;Temp;Humidity;BMP_temperature;BMP_pressure;BME280_temperature;BME280_humidity;BME280_pressure;Samples;Min_cycle;Max_cycle;Signal;HPM_P1;HPM_P2
2023/01/28 00:00:32;;;;;;;14.55;8.00;;;8.30;75.60;;;;;;6184581;23;20076;-80
2023/01/28 00:02:57;;;;;;;13.55;8.68;;;8.40;75.60;;;;;;6184458;23;20509;-80
2023/01/28 00:05:23;;;;;;;12.02;7.85;;;8.30;75.50;;;;;;6182108;23;20005;-77
2023/01/28 00:07:50;;;;;;;12.77;8.45;;;8.30;75.80;;;;;;6184004;23;20051;-80
2023/01/28 00:10:16;;;;;;;11.23;7.93;;;8.20;75.90;;;;;;6184218;23;20462;-79
2023/01/28 00:12:42;;;;;;;12.75;7.97;;;8.30;76.60;;;;;;6184425;23;20004;-77
2023/01/28 00:15:09;;;;;;;14.70;8.90;;;8.20;75.70;;;;;;6184485;23;20005;-79
2023/01/28 00:17:35;;;;;;;12.30;8.45;;;8.10;76.30;;;;;;6184002;23;20442;-80
2023/01/28 00:20:02;;;;;;;10.90;7.80;;;8.10;76.30;;;;;;6184215;23;20013;-79
2023/01/28 00:22:28;;;;;;;13.68;8.82;;;8.10;76.70;;;;;;6184143;23;20453;-80
2023/01/28 00:24:54;;;;;;;13.27;8.23;;;8.00;76.40;;;;;;6184449;23;20076;-80
2023/01/28 00:27:19;;;;;;;11.88;8.48;;;8.10;76.40;;;;;;6184222;23;20359;-80
2023/01/28 00:29:45;;;;;;;13.48;8.48;;;8.00;76.60;;;;;;6184215;23;20013;-78
2023/01/28 00:32:11;;;;;;;13.05;8.18;;;8.00;76.70;;;;;;6184788;23;19997;-80
2023/01/28 00:34:36;;;;;;;15.57;9.10;;;8.00;77.00;;;;;;6184729;23;20342;-80
2023/01/28 00:37:02;;;;;;;11.95;8.27;;;8.00;76.80;;;;;;6183899;23;20031;-81
2023/01/28 00:39:28;;;;;;;12.55;8.15;;;7.90;77.30;;;;;;6183883;23;20001;-80
2023/01/28 00:41:54;;;;;;;12.65;8.50;;;7.90;77.40;;;;;;6185734;23;20028;-80
2023/01/28 00:44:20;;;;;;;13.02;8.55;;;7.90;77.20;;;;;;6184272;23;20013;-78
2023/01/28 00:46:46;;;;;;;11.55;7.80;;;7.90;77.50;;;;;;6193628;23;20001;-78
2023/01/28 00:49:11;;;;;;;12.25;8.05;;;7.90;77.50;;;;;;6196811;23;19996;-79
2023/01/28 00:51:37;;;;;;;12.63;8.32;;;7.90;77.50;;;;;;6189742;23;20295;-81
2023/01/28 00:54:03;;;;;;;10.98;7.85;;;7.90;77.40;;;;;;6186801;23;20001;-80
2023/01/28 00:56:29;;;;;;;11.80;8.05;;;7.90;77.30;;;;;;6186389;23;20111;-79
2023/01/28 00:58:54;;;;;;;13.13;8.15;;;7.90;77.20;;;;;;6186264;23;20107;-80
2023/01/28 01:01:25;;;;;;;14.43;8.13;;;7.90;77.30;;;;;;6185777;23;20001;-80
2023/01/28 01:04:01;;;;;;;13.32;8.05;;;7.80;77.70;;;;;;6185990;23;20003;-80
2023/01/28 01:06:31;;;;;;;12.32;7.95;;;7.80;77.70;;;;;;6186111;23;20005;-80
2023/01/28 01:08:56;;;;;;;12.23;8.23;;;7.80;77.90;;;;;;6186131;23;19997;-79
2023/01/28 01:11:22;;;;;;;13.30;8.25;;;7.80;78.10;;;;;;6185372;23;20009;-79
2023/01/28 01:13:56;;;;;;;12.82;8.77;;;7.80;77.80;;;;;;6185667;23;20068;-80
2023/01/28 01:16:24;;;;;;;13.77;8.27;;;7.80;77.90;;;;;;6185639;23;20005;-80
2023/01/28 01:18:51;;;;;;;12.43;7.97;;;7.80;78.20;;;;;;6185871;23;20001;-79
2023/01/28 01:21:19;;;;;;;12.05;8.00;;;7.80;78.00;;;;;;6185610;23;20469;-80
2023/01/28 01:23:45;;;;;;;10.80;7.30;;;7.80;77.90;;;;;;6185386;23;20099;-80
2023/01/28 01:26:12;;;;;;;13.23;8.32;;;7.80;78.00;;;;;;6185536;23;20009;-79
2023/01/28 01:28:37;;;;;;;11.45;7.75;;;7.80;77.70;;;;;;6185671;23;20086;-79
2023/01/28 01:31:06;;;;;;;11.52;8.23;;;7.70;78.00;;;;;;6185515;23;20013;-80
2023/01/28 01:33:32;;;;;;;10.38;7.70;;;7.70;78.00;;;;;;6185531;23;19997;-80
2023/01/28 01:35:59;;;;;;;11.25;8.30;;;7.80;79.10;;;;;;6185692;23;20082;-80
2023/01/28 01:38:25;;;;;;;11.07;7.57;;;7.80;78.50;;;;;;6185249;23;20005;-79
2023/01/28 01:40:51;;;;;;;11.07;7.82;;;7.90;78.40;;;;;;6185655;23;20008;-78
2023/01/28 01:43:19;;;;;;;12.32;7.75;;;7.90;78.50;;;;;;6185490;23;20045;-78
2023/01/28 01:45:50;;;;;;;12.95;8.25;;;7.80;78.30;;;;;;6185468;23;20081;-78
2023/01/28 01:48:22;;;;;;;13.23;8.00;;;7.70;78.80;;;;;;6185046;23;20004;-77
2023/01/28 01:50:53;;;;;;;11.82;8.02;;;7.70;79.20;;;;;;6185279;23;20016;-79
2023/01/28 01:53:23;;;;;;;11.90;7.63;;;7.60;79.50;;;;;;6184982;23;20020;-80
2023/01/28 01:55:51;;;;;;;12.45;7.70;;;7.60;80.40;;;;;;6184994;23;20127;-78
2023/01/28 01:58:20;;;;;;;11.13;7.88;;;7.60;80.20;;;;;;6158702;23;20005;-79
2023/01/28 02:00:46;;;;;;;11.23;7.22;;;7.60;80.00;;;;;;6184673;23;20036;-78
2023/01/28 02:03:14;;;;;;;10.02;6.93;;;7.60;80.40;;;;;;6185205;23;20328;-78
2023/01/28 02:05:39;;;;;;;9.90;7.00;;;7.60;80.70;;;;;;6158623;23;20494;-80
2023/01/28 02:08:21;;;;;;;11.35;7.18;;;7.50;81.10;;;;;;6158227;23;20001;-79
2023/01/28 02:10:51;;;;;;;11.95;8.10;;;7.50;81.40;;;;;;6183184;23;20021;-79
2023/01/28 02:13:19;;;;;;;12.10;7.68;;;7.50;80.70;;;;;;6184862;23;20370;-80
2023/01/28 02:15:46;;;;;;;11.38;8.05;;;7.50;80.70;;;;;;6185252;23;20008;-80
2023/01/28 02:18:12;;;;;;;11.55;7.00;;;7.50;80.80;;;;;;6185762;23;19997;-79
2023/01/28 02:21:07;;;;;;;12.25;7.63;;;7.50;81.10;;;;;;6185189;23;20055;-80
2023/01/28 02:23:56;;;;;;;12.05;7.15;;;7.50;81.00;;;;;;6080498;23;20074;-80
2023/01/28 02:26:52;;;;;;;10.98;6.95;;;7.40;81.50;;;;;;6185168;23;20001;-78
2023/01/28 02:29:28;;;;;;;10.23;6.55;;;7.30;81.30;;;;;;6184602;23;20335;-80
2023/01/28 02:32:04;;;;;;;10.45;6.95;;;7.30;80.80;;;;;;6185194;23;20005;-78
2023/01/28 02:34:38;;;;;;;11.38;6.43;;;7.30;80.80;;;;;;6185109;23;20008;-79
2023/01/28 02:37:14;;;;;;;10.60;6.60;;;7.20;81.80;;;;;;6184777;23;20087;-79
2023/01/28 02:39:48;;;;;;;9.80;6.75;;;7.20;81.70;;;;;;6184947;23;20387;-79
2023/01/28 02:42:28;;;;;;;11.05;6.82;;;7.30;82.40;;;;;;6185168;23;20004;-79
2023/01/28 02:44:54;;;;;;;9.57;6.22;;;7.30;81.50;;;;;;6184732;23;20009;-78
2023/01/28 02:50:06;;;;;;;;;;;7.40;82.30;;;;;;6185258;23;20027;-78
2023/01/28 02:56:06;;;;;;;11.18;6.22;;;7.40;82.20;;;;;;6184790;23;20079;-79
2023/01/28 02:58:41;;;;;;;9.18;6.28;;;7.40;82.10;;;;;;6184831;23;20072;-79
2023/01/28 03:01:13;;;;;;;12.07;6.55;;;7.40;82.20;;;;;;6184996;23;20001;-79
2023/01/28 03:04:03;;;;;;;10.77;6.70;;;7.40;82.20;;;;;;6184957;23;20001;-80
2023/01/28 03:06:38;;;;;;;9.23;6.10;;;7.30;81.90;;;;;;6184591;23;20005;-81
2023/01/28 03:09:22;;;;;;;11.55;7.13;;;7.30;81.40;;;;;;6184873;23;20359;-79
2023/01/28 03:37:04;;;;;;;9.82;6.43;;;7.10;82.10;;;;;;6183935;23;20015;-78
2023/01/28 03:39:30;;;;;;;12.52;6.65;;;7.10;82.80;;;;;;6184442;23;20037;-78
2023/01/28 03:42:04;;;;;;;9.85;5.93;;;7.10;82.60;;;;;;6184485;23;20005;-79
2023/01/28 03:47:14;;;;;;;10.02;6.38;;;7.10;82.60;;;;;;6184453;23;20064;-78
2023/01/28 03:49:47;;;;;;;9.25;6.20;;;7.00;83.10;;;;;;6184303;23;20013;-78
2023/01/28 03:52:15;;;;;;;10.70;6.40;;;7.00;83.00;;;;;;6184332;23;20514;-77
2023/01/28 03:54:41;;;;;;;11.45;6.47;;;7.00;83.70;;;;;;6184223;23;20001;-79
2023/01/28 03:57:07;;;;;;;10.43;6.35;;;7.10;83.70;;;;;;6184217;23;20048;-78
2023/01/28 03:59:33;;;;;;;9.77;6.50;;;7.10;83.90;;;;;;6184019;23;20072;-80
2023/01/28 04:02:01;;;;;;;9.57;6.03;;;7.20;84.00;;;;;;6185297;23;20024;-78
2023/01/28 04:04:28;;;;;;;9.43;6.43;;;7.20;84.40;;;;;;6186763;23;20079;-79
2023/01/28 04:06:54;;;;;;;9.35;6.60;;;7.20;83.60;;;;;;6186767;23;20017;-78
2023/01/28 04:09:21;;;;;;;9.02;6.00;;;7.20;83.40;;;;;;6194408;23;20012;-77
2023/01/28 04:11:48;;;;;;;9.65;5.70;;;7.20;83.50;;;;;;6210696;23;20024;-78
2023/01/28 04:14:14;;;;;;;9.15;6.28;;;7.20;83.50;;;;;;6210651;23;20005;-78
2023/01/28 04:16:41;;;;;;;14.05;7.43;;;7.20;84.40;;;;;;6187250;23;20109;-78
2023/01/28 04:19:07;;;;;;;10.45;6.43;;;7.20;84.20;;;;;;6184212;23;19997;-79
2023/01/28 04:21:33;;;;;;;10.07;6.28;;;7.10;84.20;;;;;;6185101;23;19998;-78
2023/01/28 04:23:59;;;;;;;10.32;6.60;;;7.20;84.80;;;;;;6186294;23;20005;-79
2023/01/28 04:26:24;;;;;;;9.73;6.20;;;7.30;84.70;;;;;;6186096;23;19997;-79
2023/01/28 04:28:50;;;;;;;9.32;6.22;;;7.40;84.30;;;;;;6185884;23;20470;-78
2023/01/28 04:31:16;;;;;;;10.43;6.65;;;7.40;84.40;;;;;;6186373;23;20023;-79
2023/01/28 04:33:41;;;;;;;11.73;6.80;;;7.40;84.20;;;;;;6185998;23;20004;-78
2023/01/28 04:36:07;;;;;;;10.07;6.40;;;7.50;84.30;;;;;;6186130;23;20334;-80
2023/01/28 04:38:33;;;;;;;8.82;6.05;;;7.50;84.60;;;;;;6186438;23;20009;-79
2023/01/28 04:40:58;;;;;;;11.65;6.63;;;7.50;84.30;;;;;;6186075;23;20001;-78
2023/01/28 04:43:24;;;;;;;11.18;6.47;;;7.50;85.10;;;;;;6185998;23;20431;-79
2023/01/28 04:45:50;;;;;;;9.98;6.32;;;7.60;84.50;;;;;;6186011;23;20009;-79
2023/01/28 04:48:16;;;;;;;9.25;6.30;;;7.60;84.50;;;;;;6186084;23;20005;-78
2023/01/28 04:50:42;;;;;;;9.13;6.13;;;7.70;84.30;;;;;;6185887;23;20059;-79
2023/01/28 04:53:09;;;;;;;9.90;6.15;;;7.60;84.60;;;;;;6186014;23;20001;-79
2023/01/28 04:55:35;;;;;;;11.25;6.75;;;7.50;84.70;;;;;;6185937;23;20087;-79
2023/01/28 04:58:01;;;;;;;8.73;6.20;;;7.40;84.80;;;;;;6185291;23;20003;-78
2023/01/28 05:00:27;;;;;;;10.25;6.80;;;7.40;84.90;;;;;;6185427;23;20021;-78
2023/01/28 05:02:52;;;;;;;9.98;6.38;;;7.40;85.00;;;;;;6185288;23;19997;-80
2023/01/28 05:05:18;;;;;;;9.68;6.93;;;7.40;85.50;;;;;;6185655;23;20009;-79
2023/01/28 05:07:49;;;;;;;10.50;6.75;;;7.50;85.20;;;;;;6185335;23;20020;-77
2023/01/28 05:10:15;;;;;;;9.23;6.57;;;7.50;84.80;;;;;;6185658;23;20009;-77
2023/01/28 05:12:43;;;;;;;11.02;6.70;;;7.50;85.30;;;;;;6185600;23;20007;-79
2023/01/28 05:15:09;;;;;;;10.25;6.43;;;7.50;85.20;;;;;;6185505;23;20055;-79
2023/01/28 05:17:34;;;;;;;11.48;6.85;;;7.40;85.50;;;;;;6185627;23;20005;-78
2023/01/28 05:20:00;;;;;;;10.80;6.65;;;7.40;84.90;;;;;;6185668;23;20382;-80
2023/01/28 05:22:26;;;;;;;8.43;6.13;;;7.40;85.40;;;;;;6185740;23;20009;-78
2023/01/28 05:24:52;;;;;;;9.55;6.30;;;7.30;85.90;;;;;;6185688;23;20431;-79
2023/01/28 05:27:17;;;;;;;9.80;6.03;;;7.30;85.70;;;;;;6185626;23;20035;-79
2023/01/28 05:29:43;;;;;;;8.32;6.05;;;7.30;85.80;;;;;;6185691;23;20008;-79
2023/01/28 05:32:09;;;;;;;9.80;6.07;;;7.30;85.90;;;;;;6185185;23;20423;-79
2023/01/28 05:34:35;;;;;;;10.05;7.03;;;7.30;86.00;;;;;;6185095;23;20431;-80
2023/01/28 05:37:00;;;;;;;9.60;5.80;;;7.30;86.10;;;;;;6185383;23;20016;-79
2023/01/28 05:39:26;;;;;;;9.55;6.10;;;7.30;86.30;;;;;;6185363;23;20071;-79
2023/01/28 05:41:51;;;;;;;9.82;6.20;;;7.30;86.20;;;;;;6185672;23;20028;-80
2023/01/28 05:44:17;;;;;;;10.32;6.63;;;7.40;86.10;;;;;;6185266;23;20013;-79
2023/01/28 05:46:45;;;;;;;8.25;5.88;;;7.40;86.30;;;;;;6185302;23;20467;-79
2023/01/28 05:49:12;;;;;;;10.13;6.50;;;7.30;86.20;;;;;;6184849;23;20084;-79
2023/01/28 05:51:40;;;;;;;10.18;6.50;;;7.20;86.10;;;;;;6184913;23;20013;-79
2023/01/28 05:54:07;;;;;;;12.25;7.32;;;7.20;86.40;;;;;;6185392;23;20001;-79
2023/01/28 05:56:33;;;;;;;8.77;6.00;;;7.20;86.60;;;;;;6185121;23;20001;-79
2023/01/28 05:58:59;;;;;;;10.15;6.93;;;7.10;86.70;;;;;;6184983;23;20151;-78
2023/01/28 06:01:25;;;;;;;9.45;6.80;;;7.10;86.90;;;;;;6185198;23;20032;-79
2023/01/28 06:03:51;;;;;;;8.38;5.88;;;7.00;87.20;;;;;;6184913;23;20008;-79
2023/01/28 06:06:16;;;;;;;9.00;6.18;;;7.00;87.80;;;;;;6184910;23;20001;-79
2023/01/28 06:08:42;;;;;;;9.13;6.53;;;7.00;87.60;;;;;;6185044;23;20462;-79
2023/01/28 06:11:08;;;;;;;8.15;5.85;;;6.90;87.20;;;;;;6185140;23;20095;-79
2023/01/28 06:13:33;;;;;;;9.57;5.93;;;6.90;87.20;;;;;;6185135;23;19997;-78
2023/01/28 06:15:59;;;;;;;10.45;6.20;;;6.90;87.90;;;;;;6184904;23;20009;-78
2023/01/28 06:18:25;;;;;;;9.80;6.47;;;6.90;87.30;;;;;;6158279;23;20001;-78
2023/01/28 06:20:51;;;;;;;10.40;6.45;;;6.90;87.70;;;;;;6185053;23;20008;-79
2023/01/28 06:23:17;;;;;;;10.60;6.78;;;6.80;87.80;;;;;;6185069;23;20307;-79
2023/01/28 06:25:42;;;;;;;8.82;6.05;;;6.90;88.00;;;;;;6185049;23;20060;-80
2023/01/28 06:28:08;;;;;;;8.38;6.10;;;6.90;87.50;;;;;;6158694;23;20001;-79
2023/01/28 06:30:34;;;;;;;10.57;6.25;;;6.90;87.60;;;;;;6184646;23;20052;-80
2023/01/28 06:33:00;;;;;;;9.45;5.95;;;7.00;87.80;;;;;;6184789;23;20024;-79
2023/01/28 06:35:26;;;;;;;9.85;6.28;;;7.10;87.60;;;;;;6184996;23;20001;-80
2023/01/28 06:37:52;;;;;;;10.93;5.75;;;7.20;87.80;;;;;;6184991;23;20007;-78
2023/01/28 06:40:19;;;;;;;9.57;6.35;;;7.30;87.50;;;;;;6185019;23;20005;-79
2023/01/28 06:42:45;;;;;;;10.90;5.72;;;7.40;87.30;;;;;;6184597;23;20055;-79
2023/01/28 06:45:10;;;;;;;8.88;6.07;;;7.50;87.10;;;;;;6154968;23;20025;-80
2023/01/28 06:47:38;;;;;;;9.43;5.55;;;7.50;86.90;;;;;;6154760;23;20012;-80
2023/01/28 06:50:05;;;;;;;8.52;5.82;;;7.60;87.10;;;;;;6155007;23;20016;-79
2023/01/28 06:52:30;;;;;;;8.52;6.10;;;7.60;87.40;;;;;;6154914;23;20428;-80
2023/01/28 06:54:56;;;;;;;9.00;5.65;;;7.50;87.20;;;;;;6155307;23;20001;-80
2023/01/28 06:57:22;;;;;;;10.30;6.50;;;7.60;87.30;;;;;;6154879;23;20029;-79
2023/01/28 06:59:47;;;;;;;9.10;6.10;;;7.60;87.10;;;;;;6155007;23;20005;-78
2023/01/28 07:02:13;;;;;;;8.70;5.35;;;7.60;87.10;;;;;;6155130;23;19997;-80
2023/01/28 07:04:39;;;;;;;9.20;5.68;;;7.60;87.10;;;;;;6153261;23;20005;-80
2023/01/28 07:07:04;;;;;;;9.60;6.32;;;7.50;86.80;;;;;;6154521;23;20115;-80
2023/01/28 07:09:30;;;;;;;9.18;5.70;;;7.50;87.10;;;;;;6154720;23;20006;-80
2023/01/28 07:11:56;;;;;;;10.23;6.47;;;7.50;87.20;;;;;;6155236;23;20105;-80
2023/01/28 07:14:21;;;;;;;9.15;5.45;;;7.60;87.20;;;;;;6155091;23;19998;-80
2023/01/28 07:16:47;;;;;;;8.57;5.65;;;7.70;87.40;;;;;;6154618;23;20008;-80
2023/01/28 07:19:13;;;;;;;8.40;6.00;;;7.70;87.20;;;;;;6155072;23;20391;-80
2023/01/28 07:21:38;;;;;;;9.30;6.05;;;7.80;87.00;;;;;;6154849;23;20002;-80
2023/01/28 07:24:05;;;;;;;9.25;5.82;;;7.80;87.00;;;;;;6153224;23;20029;-81
2023/01/28 07:26:31;;;;;;;9.90;5.63;;;7.80;87.20;;;;;;6155985;23;20002;-79
2023/01/28 07:28:56;;;;;;;8.55;5.63;;;7.70;86.90;;;;;;6162280;23;20010;-79
2023/01/28 07:31:22;;;;;;;9.00;5.70;;;7.70;87.20;;;;;;6173604;23;20064;-78
2023/01/28 07:33:48;;;;;;;8.35;5.72;;;7.60;86.80;;;;;;6181644;23;19990;-79
2023/01/28 07:36:13;;;;;;;9.43;6.53;;;7.50;86.90;;;;;;6171484;23;20455;-79
2023/01/28 07:38:39;;;;;;;10.43;6.10;;;7.60;87.60;;;;;;6155014;23;20084;-79
2023/01/28 07:41:05;;;;;;;9.27;6.25;;;7.50;87.00;;;;;;6154834;23;20080;-78
2023/01/28 07:43:30;;;;;;;9.85;5.80;;;7.60;87.30;;;;;;6164226;23;20040;-79
2023/01/28 07:46:00;;;;;;;8.95;5.95;;;7.60;87.10;;;;;;6184195;23;20075;-79
2023/01/28 07:48:26;;;;;;;9.82;6.00;;;7.50;86.40;;;;;;6184206;23;19997;-79
2023/01/28 07:50:51;;;;;;;8.73;5.68;;;7.50;86.70;;;;;;6184196;23;20020;-80
2023/01/28 07:53:18;;;;;;;8.60;5.70;;;7.50;87.10;;;;;;6182617;23;20407;-78
2023/01/28 07:55:44;;;;;;;12.50;7.47;;;7.50;87.10;;;;;;6184400;23;20033;-80
2023/01/28 07:58:10;;;;;;;8.50;5.60;;;7.50;87.10;;;;;;6186476;23;19997;-80
2023/01/28 08:00:37;;;;;;;9.30;6.00;;;7.60;87.10;;;;;;6186340;23;20477;-79
2023/01/28 08:03:05;;;;;;;8.55;5.03;;;7.60;87.00;;;;;;6186252;23;20048;-79
2023/01/28 08:05:44;;;;;;;7.63;5.28;;;7.50;86.30;;;;;;6186366;23;20024;-79
2023/01/28 08:08:10;;;;;;;9.80;5.70;;;7.50;86.30;;;;;;6159896;23;20004;-80
2023/01/28 08:10:37;;;;;;;8.93;5.47;;;7.40;86.50;;;;;;6185853;23;20074;-80
2023/01/28 08:13:03;;;;;;;7.70;5.53;;;7.40;86.50;;;;;;6159036;23;20008;-79
2023/01/28 08:15:29;;;;;;;10.05;6.10;;;7.30;86.30;;;;;;6185590;23;20005;-78
2023/01/28 08:17:57;;;;;;;10.55;5.97;;;7.40;86.30;;;;;;6185689;23;20076;-77
2023/01/28 08:20:24;;;;;;;10.63;6.68;;;7.30;86.50;;;;;;6186247;23;20043;-77
2023/01/28 08:22:50;;;;;;;10.73;6.25;;;7.30;86.60;;;;;;6186709;23;20032;-81
2023/01/28 08:25:16;;;;;;;8.10;5.82;;;7.30;86.90;;;;;;6186042;23;19997;-81
2023/01/28 08:27:41;;;;;;;8.98;6.00;;;7.30;86.40;;;;;;6185555;23;20012;-80
2023/01/28 08:30:10;;;;;;;10.57;6.32;;;7.30;86.60;;;;;;6185634;23;20131;-79
2023/01/28 08:32:36;;;;;;;10.75;6.70;;;7.40;86.40;;;;;;6186157;23;20001;-78
2023/01/28 08:35:03;;;;;;;8.68;5.85;;;7.40;86.30;;;;;;6186326;23;20080;-78
2023/01/28 08:37:28;;;;;;;9.77;6.43;;;7.50;86.30;;;;;;6186152;23;20001;-77
2023/01/28 08:39:54;;;;;;;8.82;6.10;;;7.60;86.50;;;;;;6185110;23;20008;-76
2023/01/28 08:42:20;;;;;;;11.25;6.28;;;7.70;86.30;;;;;;6185902;23;20428;-73
2023/01/28 08:44:46;;;;;;;10.35;6.68;;;7.80;86.00;;;;;;6185990;23;20024;-77
2023/01/28 08:47:13;;;;;;;12.20;7.35;;;8.00;86.80;;;;;;6159719;23;20343;-78
2023/01/28 08:49:39;;;;;;;10.05;6.05;;;8.20;86.20;;;;;;6185447;23;20016;-75
2023/01/28 08:52:04;;;;;;;8.98;5.63;;;8.20;85.80;;;;;;6185668;23;20009;-73
2023/01/28 08:54:31;;;;;;;8.82;5.63;;;8.20;85.10;;;;;;6185894;23;20051;-73
2023/01/28 08:56:57;;;;;;;10.57;6.03;;;8.10;85.30;;;;;;6185516;23;20005;-77
2023/01/28 08:59:22;;;;;;;9.75;5.90;;;8.00;85.30;;;;;;6185722;23;20074;-73
2023/01/28 09:01:48;;;;;;;9.63;5.65;;;8.10;85.90;;;;;;6185940;23;20008;-73
2023/01/28 09:04:14;;;;;;;8.35;5.43;;;8.00;85.40;;;;;;6185186;23;20079;-75
2023/01/28 09:06:39;;;;;;;8.70;5.82;;;8.00;85.30;;;;;;6185712;23;19997;-74
2023/01/28 09:09:05;;;;;;;11.25;5.70;;;8.00;85.60;;;;;;6185663;23;20410;-75
2023/01/28 09:11:31;;;;;;;11.68;5.80;;;8.00;85.40;;;;;;6185899;23;20044;-74
2023/01/28 09:13:57;;;;;;;8.20;5.70;;;7.90;85.00;;;;;;6186142;23;20455;-72
2023/01/28 09:16:23;;;;;;;8.77;5.70;;;8.00;85.30;;;;;;6159060;23;20005;-74
2023/01/28 09:18:50;;;;;;;9.00;5.57;;;8.00;85.00;;;;;;6184774;23;20020;-74
2023/01/28 09:21:16;;;;;;;9.40;5.38;;;8.00;84.70;;;;;;6185658;23;20005;-73
2023/01/28 09:23:42;;;;;;;10.25;6.30;;;8.00;84.70;;;;;;6185378;23;20002;-74
2023/01/28 09:26:08;;;;;;;9.57;5.63;;;8.00;85.00;;;;;;6185431;23;20112;-75
2023/01/28 09:28:34;;;;;;;16.10;6.63;;;8.10;84.60;;;;;;6185382;23;19997;-76
2023/01/28 09:31:07;;;;;;;14.32;6.47;;;8.10;84.50;;;;;;6186372;23;20490;-76
2023/01/28 09:33:34;;;;;;;;;;;8.00;84.80;;;;;;6186542;23;20313;-76
2023/01/28 09:36:01;;;;;;;10.50;6.22;;;8.10;84.70;;;;;;6185767;23;19907;-75
2023/01/28 09:38:27;;;;;;;11.93;6.47;;;8.20;84.20;;;;;;6185096;23;20037;-76
2023/01/28 09:40:55;;;;;;;9.73;6.45;;;8.30;84.10;;;;;;6185540;23;20005;-75
2023/01/28 09:43:32;;;;;;;9.82;6.05;;;8.30;83.80;;;;;;6185369;23;20016;-73
2023/01/28 09:46:01;;;;;;;10.02;6.32;;;8.40;83.90;;;;;;6184407;23;20001;-76
2023/01/28 09:48:46;;;;;;;10.82;6.47;;;8.40;83.40;;;;;;6184138;23;20013;-76
2023/01/28 09:51:31;;;;;;;10.48;6.57;;;8.40;83.60;;;;;;6157854;23;20016;-76
2023/01/28 09:54:03;;;;;;;10.77;6.22;;;8.40;84.10;;;;;;6185293;23;20044;-75
2023/01/28 09:56:35;;;;;;;11.05;7.22;;;8.50;83.30;;;;;;6159155;23;20466;-77
2023/01/28 09:59:18;;;;;;;10.38;6.88;;;8.50;83.20;;;;;;6185438;23;20004;-76
2023/01/28 10:02:03;;;;;;;12.98;7.60;;;8.50;83.60;;;;;;6186050;23;20421;-75
2023/01/28 10:04:57;;;;;;;11.43;7.20;;;8.50;83.90;;;;;;6185262;23;20001;-77
2023/01/28 10:07:47;;;;;;;9.88;6.30;;;8.50;84.60;;;;;;6184685;23;20005;-75
2023/01/28 10:10:24;;;;;;;9.75;6.57;;;8.60;83.10;;;;;;6184395;23;20023;-76
2023/01/28 10:13:24;;;;;;;12.38;7.72;;;8.60;83.50;;;;;;6184731;23;20001;-78
2023/01/28 10:15:50;;;;;;;12.48;6.90;;;8.60;83.00;;;;;;6185423;23;20005;-77
2023/01/28 10:18:21;;;;;;;13.05;7.18;;;8.70;83.30;;;;;;6184820;23;20009;-76
2023/01/28 10:20:53;;;;;;;11.43;7.78;;;8.70;83.50;;;;;;6183981;23;20013;-76
2023/01/28 10:23:28;;;;;;;13.65;7.82;;;8.70;83.10;;;;;;6185381;23;20001;-75
2023/01/28 10:25:57;;;;;;;11.18;7.32;;;8.70;83.20;;;;;;6188204;23;20019;-76
2023/01/28 10:28:29;;;;;;;12.43;7.10;;;8.60;83.30;;;;;;6197315;23;20001;-77
2023/01/28 10:30:55;;;;;;;9.23;5.78;;;8.40;83.20;;;;;;6191550;23;20489;-77
2023/01/28 10:33:23;;;;;;;12.13;7.50;;;8.40;83.50;;;;;;6185465;23;19997;-77
2023/01/28 10:35:49;;;;;;;12.57;7.15;;;8.40;84.00;;;;;;6185136;23;20005;-77
2023/01/28 10:38:20;;;;;;;9.40;7.03;;;8.30;83.90;;;;;;6184934;23;20005;-76
2023/01/28 10:40:49;;;;;;;12.02;7.47;;;8.40;84.30;;;;;;6185233;23;20104;-77
2023/01/28 10:43:28;;;;;;;12.98;6.93;;;8.40;83.80;;;;;;6185297;23;20041;-77
2023/01/28 10:45:54;;;;;;;12.02;7.40;;;8.40;83.70;;;;;;6185061;23;20372;-77
2023/01/28 10:48:31;;;;;;;10.85;7.15;;;8.40;83.90;;;;;;6185303;23;20032;-77
2023/01/28 10:51:01;;;;;;;10.32;7.28;;;8.30;84.00;;;;;;6184781;23;20055;-75
2023/01/28 10:53:38;;;;;;;9.88;6.88;;;8.40;83.60;;;;;;6185207;23;20001;-78
2023/01/28 10:56:31;;;;;;;10.65;6.93;;;8.40;83.90;;;;;;6159588;23;20084;-76
2023/01/28 10:59:01;;;;;;;11.45;7.63;;;8.40;83.80;;;;;;6158075;23;20005;-77
2023/01/28 11:01:44;;;;;;;12.80;7.10;;;8.50;84.40;;;;;;6185245;23;20328;-77
2023/01/28 11:04:29;;;;;;;12.95;9.57;;;8.50;84.10;;;;;;6184977;23;20065;-77
2023/01/28 11:06:59;;;;;;;12.90;7.63;;;8.70;84.40;;;;;;6185139;23;20020;-77
2023/01/28 11:09:29;;;;;;;15.65;8.18;;;8.80;83.20;;;;;;6184206;23;20411;-77
2023/01/28 11:11:56;;;;;;;12.38;6.80;;;8.90;83.50;;;;;;6184624;23;20009;-77
2023/01/28 11:14:25;;;;;;;9.18;6.00;;;9.00;83.10;;;;;;6184916;23;19997;-78
2023/01/28 11:16:53;;;;;;;9.60;6.10;;;9.00;83.30;;;;;;6184775;23;20280;-76
2023/01/28 11:19:23;;;;;;;11.82;6.82;;;9.00;83.00;;;;;;6183931;23;20435;-78
2023/01/28 11:21:54;;;;;;;13.00;7.50;;;9.00;83.40;;;;;;6184351;23;19997;-77
2023/01/28 11:24:29;;;;;;;9.93;7.00;;;9.00;83.10;;;;;;6184122;23;20072;-76
2023/01/28 11:26:57;;;;;;;10.38;6.97;;;9.00;83.30;;;;;;6184014;23;20047;-77
2023/01/28 11:29:33;;;;;;;12.55;8.75;;;9.00;83.10;;;;;;6203778;22;20013;-77
2023/01/28 11:32:00;;;;;;;9.80;6.50;;;9.00;82.70;;;;;;6213711;23;20009;-77
2023/01/28 11:34:32;;;;;;;10.55;5.95;;;9.00;82.80;;;;;;6214473;23;20027;-77
2023/01/28 11:37:14;;;;;;;8.65;5.47;;;9.10;83.00;;;;;;6214461;23;20012;-77
2023/01/28 11:39:41;;;;;;;10.75;6.53;;;9.20;82.70;;;;;;6214869;23;20055;-77
2023/01/28 11:42:20;;;;;;;10.27;5.88;;;9.30;82.40;;;;;;6222384;23;20031;-77
2023/01/28 11:44:47;;;;;;;10.50;6.03;;;9.40;81.80;;;;;;6227100;23;20072;-77
2023/01/28 11:47:38;;;;;;;8.88;6.05;;;9.40;81.20;;;;;;6227107;23;20001;-76
2023/01/28 11:50:23;;;;;;;12.50;6.32;;;9.40;81.20;;;;;;6214711;23;20013;-77
2023/01/28 11:53:12;;;;;;;10.40;6.68;;;9.60;81.50;;;;;;6241311;22;20068;-77
2023/01/28 11:56:04;;;;;;;9.15;5.95;;;9.60;81.50;;;;;;6217404;23;20398;-77
2023/01/28 11:58:55;;;;;;;10.07;6.55;;;9.70;81.10;;;;;;6215130;23;20004;-76
2023/01/28 12:01:49;;;;;;;9.15;5.70;;;9.80;80.80;;;;;;6188196;23;20005;-77
2023/01/28 12:04:24;;;;;;;;;;;9.80;80.30;;;;;;6214785;23;20375;-77
2023/01/28 12:07:44;;;;;;;10.52;6.20;;;9.80;80.40;;;;;;6214598;23;19900;-76
2023/01/28 12:10:26;;;;;;;12.63;7.05;;;9.90;79.60;;;;;;6122284;23;20421;-76
2023/01/28 12:13:14;;;;;;;9.15;6.13;;;10.00;78.50;;;;;;6205845;23;20000;-77
2023/01/28 12:16:04;;;;;;;11.80;6.35;;;10.00;78.60;;;;;;6214583;23;20419;-77
2023/01/28 12:19:06;;;;;;;11.43;6.22;;;10.00;79.00;;;;;;6213679;23;20096;-76
2023/01/28 12:21:38;;;;;;;9.35;6.25;;;10.00;78.70;;;;;;6165452;23;20104;-77
2023/01/28 12:24:16;;;;;;;9.57;6.30;;;10.00;78.60;;;;;;6214136;23;20283;-76
2023/01/28 12:26:59;;;;;;;9.68;6.07;;;10.10;78.50;;;;;;6214271;23;20020;-77
2023/01/28 12:30:00;;;;;;;12.73;7.13;;;10.10;78.80;;;;;;6214479;23;20497;-77
2023/01/28 12:32:54;;;;;;;9.52;6.68;;;10.10;78.80;;;;;;6213772;23;20728;-77
2023/01/28 12:35:43;;;;;;;8.80;6.07;;;10.10;78.60;;;;;;6214916;23;20001;-77
2023/01/28 12:38:13;;;;;;;9.77;6.05;;;10.10;78.30;;;;;;6214114;23;20013;-77
2023/01/28 12:40:53;;;;;;;9.05;6.22;;;10.20;78.10;;;;;;6214044;23;19997;-76
2023/01/28 12:43:36;;;;;;;11.23;7.05;;;10.20;79.20;;;;;;6215536;23;20000;-76
2023/01/28 12:46:30;;;;;;;11.32;6.80;;;10.20;78.70;;;;;;6215950;23;20019;-78
2023/01/28 12:49:08;;;;;;;10.15;5.75;;;10.30;78.60;;;;;;6216297;23;20008;-76
2023/01/28 12:52:04;;;;;;;8.90;5.85;;;10.30;78.10;;;;;;6216109;23;20042;-78
2023/01/28 12:55:00;;;;;;;10.43;6.97;;;10.40;78.40;;;;;;6215859;23;20396;-76
2023/01/28 12:57:29;;;;;;;10.57;6.78;;;10.40;77.50;;;;;;6215653;23;20427;-75
2023/01/28 13:00:05;;;;;;;10.40;6.20;;;10.50;76.90;;;;;;6215724;23;20001;-77
2023/01/28 13:02:43;;;;;;;12.55;6.30;;;10.50;75.70;;;;;;6215447;23;20008;-77
2023/01/28 13:05:19;;;;;;;22.45;10.13;;;10.40;75.40;;;;;;6214264;23;20000;-74
2023/01/28 13:07:55;;;;;;;18.25;9.68;;;10.40;75.70;;;;;;6215372;23;20509;-73
2023/01/28 13:10:24;;;;;;;11.23;6.18;;;10.40;75.70;;;;;;6214907;23;20012;-72
2023/01/28 13:12:50;;;;;;;16.35;7.78;;;10.40;75.10;;;;;;6215129;23;20008;-72
2023/01/28 13:15:18;;;;;;;11.60;6.35;;;10.30;74.70;;;;;;6214999;23;20009;-73
2023/01/28 13:17:55;;;;;;;10.25;6.10;;;10.40;74.80;;;;;;6215089;23;20001;-73
2023/01/28 13:20:47;;;;;;;10.13;6.22;;;10.40;75.30;;;;;;6215192;23;20059;-73
2023/01/28 13:23:37;;;;;;;10.48;6.68;;;10.40;76.20;;;;;;6215296;23;20001;-75
2023/01/28 13:26:19;;;;;;;11.52;7.25;;;10.40;75.20;;;;;;6215430;23;20000;-74
2023/01/28 13:28:52;;;;;;;10.95;6.72;;;10.50;76.00;;;;;;6215032;23;20067;-74
2023/01/28 13:31:21;;;;;;;9.88;6.10;;;10.60;75.00;;;;;;6215212;23;20058;-73
2023/01/28 13:33:52;;;;;;;12.13;6.60;;;10.60;74.60;;;;;;6214699;23;20106;-72
2023/01/28 13:36:44;;;;;;;12.25;7.00;;;10.60;74.60;;;;;;6214663;23;20004;-72
2023/01/28 13:39:16;;;;;;;8.38;5.65;;;10.60;75.90;;;;;;6214590;23;20058;-72
2023/01/28 13:41:48;;;;;;;9.85;6.18;;;10.60;74.30;;;;;;6214657;23;20008;-73